UNEE/KEJ METAR and TAF weather

Enter ICAO airport designator
Station Type Date Time Source
UNEE METAR 2024/06/16 07:30 UTC NOAA

UNEE 160730Z 24004MPS CAVOK 30/16 Q1007 R23/CLRD60 NOSIG RMK QFE732


Station Type Date Time Source
UNEE Decoded METAR 2024/06/16 07:30 UTC NOAA

Kemerovo, Russia (UNEE) 55-19-48N 086-04-48E
Jun 16, 2024 - 03:30 AM EDT / 2024.06.16 0730 UTC
Wind: from the WSW (240 degrees) at 9 MPH (8 KT):0
Visibility: greater than 7 mile(s):0
Temperature: 86 F (30 C)
Dew Point: 60 F (16 C)
Relative Humidity: 42%
Pressure (altimeter): 29.74 in. Hg (1007 hPa)
ob: UNEE 160730Z 24004MPS CAVOK 30/16 Q1007 R23/CLRD60 NOSIG RMK QFE732
cycle: 7

Station Type Date Time Source
UNEE TAF 2024/06/16 06:21 UTC NOAA